Terminal Aerodrome Forecast
Issued by NWS

Home | Current Version | Previous Version | Text Only | Print | Product List | Glossary On
Versions: 1 2 3 4 5 6 7 8 9 10 11 12 13 14 15 16 17 18 19 20 21 22 23 24 25 26
446
FTUS43 KLSX 301724
TAFCPS
TAF
KCPS 301724Z 3018/0118 12012G20KT 6SM -SHRA OVC025
     FM302100 16016G25KT P6SM VCTS OVC020CB
     FM010100 18015G24KT P6SM VCSH BKN070
     FM010300 21013G19KT P6SM BKN150
     FM010500 21012KT P6SM SCT110
     FM011500 23012G23KT P6SM BKN025=

USA.gov is the U.S. government's official web portal to all federal, state and local government web resources and services.